Overview Statistics Trail Chart Weather Telemetry Raw packets
 

This is the latest recevied weather packets stored in our database for station/object E20TWR-2. If no packets are shown the sender has not sent any weather packets the latest 10 day(s).

<< 24 25 26 27 28 29 30 >>
Time Temp. Humidity Pressure Rain* Wind** Luminosity Snow
1788135368 30° C 84% 1010 hPa - - 0 W/m² -
1788134743 30° C 82% 1010 hPa - - 0 W/m² -
1788134119 30° C 82% 1010 hPa - - 0 W/m² -
1788133495 30° C 82% 1010 hPa - - 0 W/m² -
1788132871 30° C 82% 1010 hPa - - 0 W/m² -
1788132257 30° C 82% 1010 hPa - - 0 W/m² -
1788131623 30° C 82% 1010 hPa - - 0 W/m² -
1788130999 30° C 81% 1009 hPa - - 0 W/m² -
1788130375 30° C 82% 1009 hPa - - 0 W/m² -
1788129752 30.56° C 80% 1009 hPa - - 0 W/m² -
1788129127 30.56° C 80% 1009 hPa - - 0 W/m² -
1788128503 30.56° C 80% 1009 hPa - - 0 W/m² -
1788127879 30.56° C 81% 1009 hPa - - 0 W/m² -
1788127256 30° C 84% 1009 hPa - - 0 W/m² -
1788101711 31.11° C 72% 1011 hPa - - 0 W/m² -
1788101087 31.11° C 72% 1011 hPa - - 0 W/m² -
1788100463 31.11° C 73% 1011 hPa - - 0 W/m² -
1788099839 31.11° C 74% 1011 hPa - - 0 W/m² -
1788099215 31.67° C 74% 1011 hPa - - 0 W/m² -
1788098591 31.67° C 75% 1011 hPa - - 0 W/m² -
1788097967 31.11° C 76% 1010 hPa - - 0 W/m² -
1788097343 31.11° C 76% 1010 hPa - - 0 W/m² -
1788096719 31.11° C 76% 1010 hPa - - 0 W/m² -
1788096095 30.56° C 78% 1010 hPa - - 0 W/m² -
1788095471 30.56° C 79% 1010 hPa - - 0 W/m² -

* Rain since midnight (hover to see other rain measurements)
** Current wind speed in m/s (hover to see current wind gust speed)